CheckWX is a tool to help pilots better visualize weather data.  It is not intended as a substitute for an official pre-flight weather briefing.

16:37:44 UTC

KPAO METAR
Palo Alto Airport
Palo Alto, California, USA
Current

48 mins ago

KPAO 251550Z 00000KT 2 SM BR OVC008 11/11 A3017
Observed
Jan-25 @ 15:50 UTC
Visibility
Conditions
Mist
Cloud Levels
  • Overcast at 800' AGL
Temperature
11°C / 52°F
Dewpoint
11°C / 52°F
Humidity
100%
Altimeter
30.17" Hg
Pressure
1021.72 hPa
Previous

2 hours ago

KPAO 251447Z 00000KT 2 1/2SM BR OVC008 11/10 A3015
Observed
Jan-25 @ 14:47 UTC
Visibility
2 1/2 SM
Flight Rules
IFR
Conditions
Mist
Cloud Levels
  • Overcast at 800' AGL
Temperature
11°C / 52°F
Dewpoint
10°C / 50°F
Humidity
94%
Altimeter
30.15" Hg
Pressure
1021.02 hPa
Previous

12 hours ago

KPAO 250447Z 00000KT 10SM BKN120 12/11 A3016 RMK LAST
Observed
Jan-25 @ 04:47 UTC
Visibility
10 SM
Flight Rules
VFR
Cloud Levels
  • Broken at 12,000' AGL
Temperature
12°C / 54°F
Dewpoint
11°C / 52°F
Humidity
94%
Altimeter
30.16" Hg
Pressure
1021.32 hPa